sensor_id;sensor_type;location;lat;lon;timestamp;P1;durP1;ratioP1;P2;durP2;ratioP2
53267;SDS011;39156;51.176;6.738;2022-09-17T00:01:01;32.75;;;30.65;;
53267;SDS011;39156;51.176;6.738;2022-09-17T00:03:28;33.28;;;30.92;;
53267;SDS011;39156;51.176;6.738;2022-09-17T00:06:02;33.47;;;31.48;;
53267;SDS011;39156;51.176;6.738;2022-09-17T00:08:34;33.22;;;31.13;;
53267;SDS011;39156;51.176;6.738;2022-09-17T00:11:06;33.75;;;31.75;;
53267;SDS011;39156;51.176;6.738;2022-09-17T00:13:42;33.08;;;30.90;;
53267;SDS011;39156;51.176;6.738;2022-09-17T00:16:09;31.70;;;29.60;;
53267;SDS011;39156;51.176;6.738;2022-09-17T00:18:35;33.03;;;30.92;;
53267;SDS011;39156;51.176;6.738;2022-09-17T00:21:04;34.22;;;32.20;;
53267;SDS011;39156;51.176;6.738;2022-09-17T00:23:30;32.53;;;30.63;;
53267;SDS011;39156;51.176;6.738;2022-09-17T00:25:56;33.28;;;31.27;;
53267;SDS011;39156;51.176;6.738;2022-09-17T00:28:23;33.60;;;31.50;;
53267;SDS011;39156;51.176;6.738;2022-09-17T00:30:48;33.50;;;31.38;;
53267;SDS011;39156;51.176;6.738;2022-09-17T00:33:15;33.20;;;31.08;;
53267;SDS011;39156;51.176;6.738;2022-09-17T00:35:42;32.42;;;30.33;;
53267;SDS011;39156;51.176;6.738;2022-09-17T00:38:08;33.15;;;31.15;;
53267;SDS011;39156;51.176;6.738;2022-09-17T00:40:34;32.88;;;30.77;;
53267;SDS011;39156;51.176;6.738;2022-09-17T00:43:01;32.40;;;30.17;;
53267;SDS011;39156;51.176;6.738;2022-09-17T00:45:28;31.00;;;29.00;;
53267;SDS011;39156;51.176;6.738;2022-09-17T00:47:57;31.85;;;29.83;;
53267;SDS011;39156;51.176;6.738;2022-09-17T00:53:10;32.63;;;30.33;;
53267;SDS011;39156;51.176;6.738;2022-09-17T00:55:42;33.25;;;31.02;;
53267;SDS011;39156;51.176;6.738;2022-09-17T00:58:17;33.92;;;31.60;;
53267;SDS011;39156;51.176;6.738;2022-09-17T01:00:46;34.33;;;32.00;;
53267;SDS011;39156;51.176;6.738;2022-09-17T01:03:13;31.88;;;29.98;;
53267;SDS011;39156;51.176;6.738;2022-09-17T01:05:41;32.45;;;30.48;;
53267;SDS011;39156;51.176;6.738;2022-09-17T01:08:34;32.53;;;30.35;;
53267;SDS011;39156;51.176;6.738;2022-09-17T01:11:20;33.08;;;30.83;;
53267;SDS011;39156;51.176;6.738;2022-09-17T01:20:21;33.83;;;31.60;;
53267;SDS011;39156;51.176;6.738;2022-09-17T01:35:00;33.75;;;31.50;;
53267;SDS011;39156;51.176;6.738;2022-09-17T01:38:14;34.17;;;31.80;;
53267;SDS011;39156;51.176;6.738;2022-09-17T01:40:48;34.70;;;32.50;;
53267;SDS011;39156;51.176;6.738;2022-09-17T01:44:12;34.15;;;31.90;;
53267;SDS011;39156;51.176;6.738;2022-09-17T01:46:48;33.28;;;31.08;;
53267;SDS011;39156;51.176;6.738;2022-09-17T01:49:20;33.10;;;31.00;;
53267;SDS011;39156;51.176;6.738;2022-09-17T01:51:49;33.65;;;31.58;;
53267;SDS011;39156;51.176;6.738;2022-09-17T01:57:00;33.45;;;31.45;;
53267;SDS011;39156;51.176;6.738;2022-09-17T01:59:42;32.30;;;30.30;;
53267;SDS011;39156;51.176;6.738;2022-09-17T02:02:26;34.30;;;32.20;;
53267;SDS011;39156;51.176;6.738;2022-09-17T02:05:06;33.92;;;31.52;;
53267;SDS011;39156;51.176;6.738;2022-09-17T02:07:40;34.35;;;32.05;;
53267;SDS011;39156;51.176;6.738;2022-09-17T02:10:11;33.35;;;30.92;;
53267;SDS011;39156;51.176;6.738;2022-09-17T02:12:42;32.72;;;30.55;;
53267;SDS011;39156;51.176;6.738;2022-09-17T02:15:18;32.70;;;30.63;;
53267;SDS011;39156;51.176;6.738;2022-09-17T02:18:01;32.40;;;30.40;;
53267;SDS011;39156;51.176;6.738;2022-09-17T02:20:53;32.35;;;30.35;;
53267;SDS011;39156;51.176;6.738;2022-09-17T02:23:28;32.53;;;30.58;;
53267;SDS011;39156;51.176;6.738;2022-09-17T02:26:03;33.22;;;31.10;;
53267;SDS011;39156;51.176;6.738;2022-09-17T02:28:41;33.30;;;30.90;;
53267;SDS011;39156;51.176;6.738;2022-09-17T02:31:12;32.63;;;30.38;;
53267;SDS011;39156;51.176;6.738;2022-09-17T02:33:38;31.77;;;29.67;;
53267;SDS011;39156;51.176;6.738;2022-09-17T02:36:08;33.75;;;31.63;;
53267;SDS011;39156;51.176;6.738;2022-09-17T02:38:33;32.92;;;30.88;;
53267;SDS011;39156;51.176;6.738;2022-09-17T02:41:03;32.97;;;30.88;;
53267;SDS011;39156;51.176;6.738;2022-09-17T02:43:42;31.83;;;29.70;;
53267;SDS011;39156;51.176;6.738;2022-09-17T02:54:37;33.22;;;31.17;;
53267;SDS011;39156;51.176;6.738;2022-09-17T02:57:18;35.53;;;33.33;;
53267;SDS011;39156;51.176;6.738;2022-09-17T03:02:40;33.05;;;30.85;;
53267;SDS011;39156;51.176;6.738;2022-09-17T03:05:13;32.17;;;29.98;;
53267;SDS011;39156;51.176;6.738;2022-09-17T03:07:43;34.25;;;31.98;;
53267;SDS011;39156;51.176;6.738;2022-09-17T03:10:09;32.63;;;30.37;;
53267;SDS011;39156;51.176;6.738;2022-09-17T03:12:35;32.80;;;30.48;;
53267;SDS011;39156;51.176;6.738;2022-09-17T03:15:02;34.05;;;31.58;;
53267;SDS011;39156;51.176;6.738;2022-09-17T03:17:28;31.75;;;29.80;;
53267;SDS011;39156;51.176;6.738;2022-09-17T03:19:54;35.75;;;33.10;;
53267;SDS011;39156;51.176;6.738;2022-09-17T03:22:20;34.50;;;32.30;;
53267;SDS011;39156;51.176;6.738;2022-09-17T03:24:46;33.75;;;31.45;;
53267;SDS011;39156;51.176;6.738;2022-09-17T03:27:11;31.67;;;29.70;;
53267;SDS011;39156;51.176;6.738;2022-09-17T03:29:37;32.33;;;30.35;;
53267;SDS011;39156;51.176;6.738;2022-09-17T03:32:03;32.40;;;30.40;;
53267;SDS011;39156;51.176;6.738;2022-09-17T03:34:32;33.45;;;31.15;;
53267;SDS011;39156;51.176;6.738;2022-09-17T03:36:58;32.83;;;30.33;;
53267;SDS011;39156;51.176;6.738;2022-09-17T03:39:27;32.38;;;30.27;;
53267;SDS011;39156;51.176;6.738;2022-09-17T03:41:53;33.60;;;31.27;;
53267;SDS011;39156;51.176;6.738;2022-09-17T03:44:19;33.97;;;31.88;;
53267;SDS011;39156;51.176;6.738;2022-09-17T03:46:46;32.83;;;30.75;;
53267;SDS011;39156;51.176;6.738;2022-09-17T03:49:12;32.50;;;30.42;;
53267;SDS011;39156;51.176;6.738;2022-09-17T03:51:38;32.72;;;30.65;;
53267;SDS011;39156;51.176;6.738;2022-09-17T03:54:04;33.08;;;31.08;;
53267;SDS011;39156;51.176;6.738;2022-09-17T04:05:41;33.20;;;31.02;;
53267;SDS011;39156;51.176;6.738;2022-09-17T04:08:09;33.22;;;31.13;;
53267;SDS011;39156;51.176;6.738;2022-09-17T04:11:52;32.95;;;30.83;;
53267;SDS011;39156;51.176;6.738;2022-09-17T04:15:34;33.13;;;30.52;;
53267;SDS011;39156;51.176;6.738;2022-09-17T04:18:19;31.85;;;29.90;;
53267;SDS011;39156;51.176;6.738;2022-09-17T04:20:45;31.58;;;29.27;;
53267;SDS011;39156;51.176;6.738;2022-09-17T04:23:10;33.35;;;30.80;;
53267;SDS011;39156;51.176;6.738;2022-09-17T04:25:37;33.07;;;30.87;;
53267;SDS011;39156;51.176;6.738;2022-09-17T04:28:03;31.67;;;29.77;;
53267;SDS011;39156;51.176;6.738;2022-09-17T04:30:28;32.92;;;30.88;;
53267;SDS011;39156;51.176;6.738;2022-09-17T04:32:54;32.97;;;31.00;;
53267;SDS011;39156;51.176;6.738;2022-09-17T04:35:20;36.15;;;33.85;;
53267;SDS011;39156;51.176;6.738;2022-09-17T04:37:55;33.95;;;31.60;;
53267;SDS011;39156;51.176;6.738;2022-09-17T04:40:22;32.13;;;30.23;;
53267;SDS011;39156;51.176;6.738;2022-09-17T04:42:53;33.80;;;31.80;;
53267;SDS011;39156;51.176;6.738;2022-09-17T04:45:20;33.75;;;31.65;;
53267;SDS011;39156;51.176;6.738;2022-09-17T04:47:47;32.95;;;30.85;;
53267;SDS011;39156;51.176;6.738;2022-09-17T04:50:15;33.45;;;31.15;;
53267;SDS011;39156;51.176;6.738;2022-09-17T04:52:44;33.00;;;30.50;;
53267;SDS011;39156;51.176;6.738;2022-09-17T04:55:10;34.67;;;32.43;;
53267;SDS011;39156;51.176;6.738;2022-09-17T04:57:36;31.50;;;29.65;;
53267;SDS011;39156;51.176;6.738;2022-09-17T05:00:03;33.85;;;31.85;;
53267;SDS011;39156;51.176;6.738;2022-09-17T05:02:34;35.03;;;32.83;;
53267;SDS011;39156;51.176;6.738;2022-09-17T05:05:00;33.30;;;30.80;;
53267;SDS011;39156;51.176;6.738;2022-09-17T05:07:25;33.28;;;31.08;;
53267;SDS011;39156;51.176;6.738;2022-09-17T05:09:51;33.83;;;31.52;;
53267;SDS011;39156;51.176;6.738;2022-09-17T05:12:17;33.33;;;31.08;;
53267;SDS011;39156;51.176;6.738;2022-09-17T05:14:44;34.00;;;32.07;;
53267;SDS011;39156;51.176;6.738;2022-09-17T05:17:10;33.92;;;31.73;;
53267;SDS011;39156;51.176;6.738;2022-09-17T05:19:35;33.67;;;31.38;;
53267;SDS011;39156;51.176;6.738;2022-09-17T05:22:01;33.22;;;30.95;;
53267;SDS011;39156;51.176;6.738;2022-09-17T05:25:25;33.97;;;31.70;;
53267;SDS011;39156;51.176;6.738;2022-09-17T05:27:52;34.65;;;32.45;;
53267;SDS011;39156;51.176;6.738;2022-09-17T05:30:20;34.75;;;32.38;;
53267;SDS011;39156;51.176;6.738;2022-09-17T05:35:51;33.30;;;30.88;;
53267;SDS011;39156;51.176;6.738;2022-09-17T05:39:08;33.13;;;31.13;;
53267;SDS011;39156;51.176;6.738;2022-09-17T05:41:41;33.40;;;31.10;;
53267;SDS011;39156;51.176;6.738;2022-09-17T05:44:15;33.10;;;30.90;;
53267;SDS011;39156;51.176;6.738;2022-09-17T05:46:52;32.90;;;30.75;;
53267;SDS011;39156;51.176;6.738;2022-09-17T05:49:46;32.65;;;30.75;;
53267;SDS011;39156;51.176;6.738;2022-09-17T05:52:16;33.90;;;31.70;;
53267;SDS011;39156;51.176;6.738;2022-09-17T05:54:47;33.45;;;31.08;;
53267;SDS011;39156;51.176;6.738;2022-09-17T05:57:36;32.33;;;29.98;;
53267;SDS011;39156;51.176;6.738;2022-09-17T06:00:05;32.15;;;30.10;;
53267;SDS011;39156;51.176;6.738;2022-09-17T06:02:31;34.08;;;32.05;;
53267;SDS011;39156;51.176;6.738;2022-09-17T06:05:06;31.77;;;29.77;;
53267;SDS011;39156;51.176;6.738;2022-09-17T06:07:49;30.45;;;28.52;;
53267;SDS011;39156;51.176;6.738;2022-09-17T06:10:19;31.77;;;29.88;;
53267;SDS011;39156;51.176;6.738;2022-09-17T06:12:45;34.00;;;31.40;;
53267;SDS011;39156;51.176;6.738;2022-09-17T06:15:11;33.58;;;31.25;;
53267;SDS011;39156;51.176;6.738;2022-09-17T06:17:41;32.40;;;30.17;;
53267;SDS011;39156;51.176;6.738;2022-09-17T06:20:17;34.17;;;31.95;;
53267;SDS011;39156;51.176;6.738;2022-09-17T06:22:49;31.55;;;29.48;;
53267;SDS011;39156;51.176;6.738;2022-09-17T06:25:23;33.72;;;31.65;;
53267;SDS011;39156;51.176;6.738;2022-09-17T06:27:55;32.70;;;30.60;;
53267;SDS011;39156;51.176;6.738;2022-09-17T06:30:24;33.90;;;31.60;;
53267;SDS011;39156;51.176;6.738;2022-09-17T06:32:58;34.95;;;32.80;;
53267;SDS011;39156;51.176;6.738;2022-09-17T06:35:24;31.92;;;30.05;;
53267;SDS011;39156;51.176;6.738;2022-09-17T06:37:53;34.08;;;31.85;;
53267;SDS011;39156;51.176;6.738;2022-09-17T06:40:39;33.67;;;31.58;;
53267;SDS011;39156;51.176;6.738;2022-09-17T06:43:29;31.02;;;29.23;;
53267;SDS011;39156;51.176;6.738;2022-09-17T06:45:56;32.63;;;30.63;;
53267;SDS011;39156;51.176;6.738;2022-09-17T06:48:29;31.42;;;29.38;;
53267;SDS011;39156;51.176;6.738;2022-09-17T06:51:03;31.45;;;29.30;;
53267;SDS011;39156;51.176;6.738;2022-09-17T06:53:31;31.77;;;29.77;;
53267;SDS011;39156;51.176;6.738;2022-09-17T06:55:58;31.85;;;29.90;;
53267;SDS011;39156;51.176;6.738;2022-09-17T07:01:44;28.63;;;26.75;;
53267;SDS011;39156;51.176;6.738;2022-09-17T07:04:45;29.40;;;27.63;;
53267;SDS011;39156;51.176;6.738;2022-09-17T07:07:26;29.65;;;27.65;;
53267;SDS011;39156;51.176;6.738;2022-09-17T07:09:52;30.73;;;28.63;;
53267;SDS011;39156;51.176;6.738;2022-09-17T07:12:19;30.33;;;28.50;;
53267;SDS011;39156;51.176;6.738;2022-09-17T07:14:45;31.35;;;29.25;;
53267;SDS011;39156;51.176;6.738;2022-09-17T07:17:14;29.38;;;27.38;;
53267;SDS011;39156;51.176;6.738;2022-09-17T07:19:40;29.90;;;28.03;;
53267;SDS011;39156;51.176;6.738;2022-09-17T07:22:06;29.00;;;27.10;;
53267;SDS011;39156;51.176;6.738;2022-09-17T07:24:32;29.42;;;27.15;;
53267;SDS011;39156;51.176;6.738;2022-09-17T07:26:58;28.75;;;26.98;;
53267;SDS011;39156;51.176;6.738;2022-09-17T07:29:24;29.08;;;27.27;;
53267;SDS011;39156;51.176;6.738;2022-09-17T07:31:51;28.15;;;26.52;;
53267;SDS011;39156;51.176;6.738;2022-09-17T07:34:22;27.23;;;25.65;;
53267;SDS011;39156;51.176;6.738;2022-09-17T07:36:47;25.20;;;23.50;;
53267;SDS011;39156;51.176;6.738;2022-09-17T07:39:13;26.88;;;25.17;;
53267;SDS011;39156;51.176;6.738;2022-09-17T07:41:39;26.15;;;24.55;;
53267;SDS011;39156;51.176;6.738;2022-09-17T07:44:04;27.50;;;24.85;;
53267;SDS011;39156;51.176;6.738;2022-09-17T07:46:33;25.90;;;24.40;;
53267;SDS011;39156;51.176;6.738;2022-09-17T07:49:00;26.38;;;24.88;;
53267;SDS011;39156;51.176;6.738;2022-09-17T07:51:26;25.60;;;24.10;;
53267;SDS011;39156;51.176;6.738;2022-09-17T07:53:57;25.60;;;24.00;;
53267;SDS011;39156;51.176;6.738;2022-09-17T07:56:24;25.40;;;23.75;;
53267;SDS011;39156;51.176;6.738;2022-09-17T07:58:51;25.13;;;23.52;;
53267;SDS011;39156;51.176;6.738;2022-09-17T08:01:17;24.95;;;23.33;;
53267;SDS011;39156;51.176;6.738;2022-09-17T08:03:49;26.05;;;24.35;;
53267;SDS011;39156;51.176;6.738;2022-09-17T08:06:18;25.63;;;24.05;;
53267;SDS011;39156;51.176;6.738;2022-09-17T08:08:47;26.08;;;24.48;;
53267;SDS011;39156;51.176;6.738;2022-09-17T08:11:14;25.45;;;23.85;;
53267;SDS011;39156;51.176;6.738;2022-09-17T08:13:45;24.63;;;23.13;;
53267;SDS011;39156;51.176;6.738;2022-09-17T08:16:16;24.80;;;23.30;;
53267;SDS011;39156;51.176;6.738;2022-09-17T08:18:42;25.05;;;23.58;;
53267;SDS011;39156;51.176;6.738;2022-09-17T08:21:10;26.30;;;24.58;;
53267;SDS011;39156;51.176;6.738;2022-09-17T08:23:40;26.02;;;24.20;;
53267;SDS011;39156;51.176;6.738;2022-09-17T08:26:10;25.85;;;24.15;;
53267;SDS011;39156;51.176;6.738;2022-09-17T08:28:38;25.17;;;23.58;;
53267;SDS011;39156;51.176;6.738;2022-09-17T08:31:07;25.58;;;23.98;;
53267;SDS011;39156;51.176;6.738;2022-09-17T08:33:34;25.75;;;24.17;;
53267;SDS011;39156;51.176;6.738;2022-09-17T08:36:02;25.48;;;23.88;;
53267;SDS011;39156;51.176;6.738;2022-09-17T08:38:30;25.75;;;24.25;;
53267;SDS011;39156;51.176;6.738;2022-09-17T08:43:39;26.25;;;24.55;;
53267;SDS011;39156;51.176;6.738;2022-09-17T08:46:13;24.75;;;23.17;;
53267;SDS011;39156;51.176;6.738;2022-09-17T08:48:40;25.95;;;24.35;;
53267;SDS011;39156;51.176;6.738;2022-09-17T08:51:28;24.80;;;23.27;;
53267;SDS011;39156;51.176;6.738;2022-09-17T08:54:49;26.17;;;24.00;;
53267;SDS011;39156;51.176;6.738;2022-09-17T09:00:49;24.83;;;23.23;;
53267;SDS011;39156;51.176;6.738;2022-09-17T09:06:15;26.10;;;24.30;;
53267;SDS011;39156;51.176;6.738;2022-09-17T09:08:45;25.10;;;23.60;;
53267;SDS011;39156;51.176;6.738;2022-09-17T09:11:28;26.15;;;24.50;;
53267;SDS011;39156;51.176;6.738;2022-09-17T09:16:56;25.33;;;23.85;;
53267;SDS011;39156;51.176;6.738;2022-09-17T09:19:26;26.65;;;24.95;;
53267;SDS011;39156;51.176;6.738;2022-09-17T09:24:24;25.60;;;24.20;;
53267;SDS011;39156;51.176;6.738;2022-09-17T09:27:00;26.90;;;25.40;;
53267;SDS011;39156;51.176;6.738;2022-09-17T09:35:17;24.85;;;23.45;;
53267;SDS011;39156;51.176;6.738;2022-09-17T09:37:50;26.20;;;24.58;;
53267;SDS011;39156;51.176;6.738;2022-09-17T09:40:40;26.27;;;24.50;;
53267;SDS011;39156;51.176;6.738;2022-09-17T09:46:49;28.17;;;26.65;;
53267;SDS011;39156;51.176;6.738;2022-09-17T09:49:16;27.35;;;25.75;;
53267;SDS011;39156;51.176;6.738;2022-09-17T09:55:13;29.30;;;27.55;;
53267;SDS011;39156;51.176;6.738;2022-09-17T09:58:02;29.02;;;27.20;;
53267;SDS011;39156;51.176;6.738;2022-09-17T10:03:19;29.80;;;28.10;;
53267;SDS011;39156;51.176;6.738;2022-09-17T10:05:55;29.00;;;27.02;;
53267;SDS011;39156;51.176;6.738;2022-09-17T10:08:30;30.88;;;28.77;;
53267;SDS011;39156;51.176;6.738;2022-09-17T10:11:03;30.67;;;28.77;;
53267;SDS011;39156;51.176;6.738;2022-09-17T10:13:34;28.92;;;27.15;;
53267;SDS011;39156;51.176;6.738;2022-09-17T10:16:17;27.42;;;25.83;;
53267;SDS011;39156;51.176;6.738;2022-09-17T10:18:49;28.38;;;26.85;;
53267;SDS011;39156;51.176;6.738;2022-09-17T10:21:42;27.17;;;25.67;;
53267;SDS011;39156;51.176;6.738;2022-09-17T10:24:14;28.05;;;26.30;;
53267;SDS011;39156;51.176;6.738;2022-09-17T10:27:27;27.58;;;26.08;;
53267;SDS011;39156;51.176;6.738;2022-09-17T10:29:48;27.52;;;25.80;;
53267;SDS011;39156;51.176;6.738;2022-09-17T10:32:20;25.67;;;24.20;;
53267;SDS011;39156;51.176;6.738;2022-09-17T10:34:56;27.95;;;26.20;;
53267;SDS011;39156;51.176;6.738;2022-09-17T10:37:46;27.92;;;26.35;;
53267;SDS011;39156;51.176;6.738;2022-09-17T10:42:47;28.52;;;27.02;;
53267;SDS011;39156;51.176;6.738;2022-09-17T10:45:36;28.48;;;26.58;;
53267;SDS011;39156;51.176;6.738;2022-09-17T10:48:02;27.00;;;25.55;;
53267;SDS011;39156;51.176;6.738;2022-09-17T10:50:29;28.88;;;27.33;;
53267;SDS011;39156;51.176;6.738;2022-09-17T10:52:58;27.65;;;25.95;;
53267;SDS011;39156;51.176;6.738;2022-09-17T11:12:50;29.13;;;27.17;;
53267;SDS011;39156;51.176;6.738;2022-09-17T11:24:38;28.38;;;26.88;;
53267;SDS011;39156;51.176;6.738;2022-09-17T11:37:08;29.25;;;27.58;;
53267;SDS011;39156;51.176;6.738;2022-09-17T11:40:03;30.23;;;28.67;;
53267;SDS011;39156;51.176;6.738;2022-09-17T11:45:14;31.30;;;29.50;;
53267;SDS011;39156;51.176;6.738;2022-09-17T11:47:53;30.48;;;28.88;;
53267;SDS011;39156;51.176;6.738;2022-09-17T11:50:30;30.83;;;29.13;;
53267;SDS011;39156;51.176;6.738;2022-09-17T12:01:31;30.05;;;28.40;;
53267;SDS011;39156;51.176;6.738;2022-09-17T12:07:18;30.67;;;28.58;;
53267;SDS011;39156;51.176;6.738;2022-09-17T12:13:22;30.65;;;28.92;;
53267;SDS011;39156;51.176;6.738;2022-09-17T12:18:58;31.50;;;29.80;;
53267;SDS011;39156;51.176;6.738;2022-09-17T12:21:59;28.83;;;27.33;;
53267;SDS011;39156;51.176;6.738;2022-09-17T12:24:32;28.90;;;27.30;;
53267;SDS011;39156;51.176;6.738;2022-09-17T12:41:19;32.72;;;29.80;;
53267;SDS011;39156;51.176;6.738;2022-09-17T12:58:16;30.48;;;28.70;;
53267;SDS011;39156;51.176;6.738;2022-09-17T13:01:11;29.65;;;28.15;;
53267;SDS011;39156;51.176;6.738;2022-09-17T13:03:41;31.02;;;29.25;;
53267;SDS011;39156;51.176;6.738;2022-09-17T13:20:48;31.65;;;29.85;;
53267;SDS011;39156;51.176;6.738;2022-09-17T13:23:55;30.27;;;28.67;;
53267;SDS011;39156;51.176;6.738;2022-09-17T13:26:31;31.30;;;29.60;;
53267;SDS011;39156;51.176;6.738;2022-09-17T13:29:00;29.73;;;28.02;;
53267;SDS011;39156;51.176;6.738;2022-09-17T13:34:01;30.75;;;29.15;;
53267;SDS011;39156;51.176;6.738;2022-09-17T13:42:06;29.67;;;28.08;;
53267;SDS011;39156;51.176;6.738;2022-09-17T13:45:12;31.13;;;29.35;;
53267;SDS011;39156;51.176;6.738;2022-09-17T13:50:32;29.35;;;27.75;;
53267;SDS011;39156;51.176;6.738;2022-09-17T13:53:08;29.60;;;27.98;;
53267;SDS011;39156;51.176;6.738;2022-09-17T13:55:48;29.45;;;27.80;;
53267;SDS011;39156;51.176;6.738;2022-09-17T13:58:24;30.25;;;28.65;;
53267;SDS011;39156;51.176;6.738;2022-09-17T14:00:57;29.20;;;27.65;;
53267;SDS011;39156;51.176;6.738;2022-09-17T14:16:30;30.33;;;28.73;;
53267;SDS011;39156;51.176;6.738;2022-09-17T14:19:02;31.65;;;29.42;;
53267;SDS011;39156;51.176;6.738;2022-09-17T14:35:51;29.00;;;27.30;;
53267;SDS011;39156;51.176;6.738;2022-09-17T14:41:31;30.83;;;28.83;;
53267;SDS011;39156;51.176;6.738;2022-09-17T14:51:59;31.02;;;29.20;;
53267;SDS011;39156;51.176;6.738;2022-09-17T14:59:44;28.48;;;26.88;;
53267;SDS011;39156;51.176;6.738;2022-09-17T15:04:54;32.42;;;30.55;;
53267;SDS011;39156;51.176;6.738;2022-09-17T15:07:21;31.67;;;29.88;;
53267;SDS011;39156;51.176;6.738;2022-09-17T15:09:47;31.13;;;29.02;;
53267;SDS011;39156;51.176;6.738;2022-09-17T15:12:19;30.85;;;29.08;;
53267;SDS011;39156;51.176;6.738;2022-09-17T15:14:52;29.92;;;28.23;;
53267;SDS011;39156;51.176;6.738;2022-09-17T15:17:20;31.65;;;29.80;;
53267;SDS011;39156;51.176;6.738;2022-09-17T15:19:50;30.48;;;28.73;;
53267;SDS011;39156;51.176;6.738;2022-09-17T15:22:31;31.08;;;29.20;;
53267;SDS011;39156;51.176;6.738;2022-09-17T15:27:42;31.35;;;29.30;;
53267;SDS011;39156;51.176;6.738;2022-09-17T15:30:16;31.33;;;29.20;;
53267;SDS011;39156;51.176;6.738;2022-09-17T15:32:47;30.13;;;28.42;;
53267;SDS011;39156;51.176;6.738;2022-09-17T15:35:20;28.95;;;27.25;;
53267;SDS011;39156;51.176;6.738;2022-09-17T15:37:57;29.33;;;27.73;;
53267;SDS011;39156;51.176;6.738;2022-09-17T15:40:41;31.00;;;28.88;;
53267;SDS011;39156;51.176;6.738;2022-09-17T15:43:15;30.30;;;28.52;;
53267;SDS011;39156;51.176;6.738;2022-09-17T15:45:52;31.25;;;29.52;;
53267;SDS011;39156;51.176;6.738;2022-09-17T15:51:04;30.20;;;28.30;;
53267;SDS011;39156;51.176;6.738;2022-09-17T15:53:53;32.53;;;30.63;;
53267;SDS011;39156;51.176;6.738;2022-09-17T15:56:23;31.95;;;30.02;;
53267;SDS011;39156;51.176;6.738;2022-09-17T15:58:57;29.52;;;27.83;;
53267;SDS011;39156;51.176;6.738;2022-09-17T16:01:48;31.48;;;29.50;;
53267;SDS011;39156;51.176;6.738;2022-09-17T16:04:18;30.70;;;28.58;;
53267;SDS011;39156;51.176;6.738;2022-09-17T16:09:44;33.55;;;31.70;;
53267;SDS011;39156;51.176;6.738;2022-09-17T16:12:19;31.52;;;29.40;;
53267;SDS011;39156;51.176;6.738;2022-09-17T16:14:48;29.85;;;27.92;;
53267;SDS011;39156;51.176;6.738;2022-09-17T16:17:30;31.92;;;29.95;;
53267;SDS011;39156;51.176;6.738;2022-09-17T16:20:12;31.92;;;29.80;;
53267;SDS011;39156;51.176;6.738;2022-09-17T16:22:47;32.10;;;30.10;;
53267;SDS011;39156;51.176;6.738;2022-09-17T16:25:14;29.70;;;27.98;;
53267;SDS011;39156;51.176;6.738;2022-09-17T16:27:44;31.88;;;29.95;;
53267;SDS011;39156;51.176;6.738;2022-09-17T16:30:21;29.40;;;27.52;;
53267;SDS011;39156;51.176;6.738;2022-09-17T16:32:48;31.48;;;29.55;;
53267;SDS011;39156;51.176;6.738;2022-09-17T16:35:15;30.55;;;28.60;;
53267;SDS011;39156;51.176;6.738;2022-09-17T16:37:47;31.83;;;29.80;;
53267;SDS011;39156;51.176;6.738;2022-09-17T16:40:14;32.17;;;30.27;;
53267;SDS011;39156;51.176;6.738;2022-09-17T16:42:40;29.40;;;27.67;;
53267;SDS011;39156;51.176;6.738;2022-09-17T16:45:06;30.55;;;28.58;;
53267;SDS011;39156;51.176;6.738;2022-09-17T16:47:33;28.95;;;27.10;;
53267;SDS011;39156;51.176;6.738;2022-09-17T16:50:02;29.95;;;27.98;;
53267;SDS011;39156;51.176;6.738;2022-09-17T16:52:30;33.15;;;31.00;;
53267;SDS011;39156;51.176;6.738;2022-09-17T16:54:55;31.08;;;28.88;;
53267;SDS011;39156;51.176;6.738;2022-09-17T16:57:22;31.08;;;29.15;;
53267;SDS011;39156;51.176;6.738;2022-09-17T16:59:47;31.25;;;29.38;;
53267;SDS011;39156;51.176;6.738;2022-09-17T17:02:13;30.77;;;28.70;;
53267;SDS011;39156;51.176;6.738;2022-09-17T17:04:38;31.38;;;29.60;;
53267;SDS011;39156;51.176;6.738;2022-09-17T17:07:04;30.90;;;28.88;;
53267;SDS011;39156;51.176;6.738;2022-09-17T17:09:30;30.02;;;28.20;;
53267;SDS011;39156;51.176;6.738;2022-09-17T17:11:56;30.73;;;28.80;;
53267;SDS011;39156;51.176;6.738;2022-09-17T17:14:21;33.53;;;30.63;;
53267;SDS011;39156;51.176;6.738;2022-09-17T17:16:47;29.83;;;28.13;;
53267;SDS011;39156;51.176;6.738;2022-09-17T17:19:12;30.10;;;28.00;;
53267;SDS011;39156;51.176;6.738;2022-09-17T17:21:38;32.15;;;30.15;;
53267;SDS011;39156;51.176;6.738;2022-09-17T17:24:04;30.67;;;28.63;;
53267;SDS011;39156;51.176;6.738;2022-09-17T17:26:31;31.80;;;29.80;;
53267;SDS011;39156;51.176;6.738;2022-09-17T17:28:57;30.30;;;28.30;;
53267;SDS011;39156;51.176;6.738;2022-09-17T17:31:23;32.65;;;30.55;;
53267;SDS011;39156;51.176;6.738;2022-09-17T17:33:49;32.10;;;30.00;;
53267;SDS011;39156;51.176;6.738;2022-09-17T17:36:15;31.48;;;29.27;;
53267;SDS011;39156;51.176;6.738;2022-09-17T17:38:40;30.98;;;28.85;;
53267;SDS011;39156;51.176;6.738;2022-09-17T17:41:07;33.27;;;30.43;;
53267;SDS011;39156;51.176;6.738;2022-09-17T17:43:35;32.08;;;29.63;;
53267;SDS011;39156;51.176;6.738;2022-09-17T17:46:01;31.77;;;29.70;;
53267;SDS011;39156;51.176;6.738;2022-09-17T17:48:29;31.45;;;29.45;;
53267;SDS011;39156;51.176;6.738;2022-09-17T17:51:00;33.00;;;30.95;;
53267;SDS011;39156;51.176;6.738;2022-09-17T17:53:30;33.67;;;31.67;;
53267;SDS011;39156;51.176;6.738;2022-09-17T17:55:57;32.67;;;30.58;;
53267;SDS011;39156;51.176;6.738;2022-09-17T17:58:25;31.33;;;29.20;;
53267;SDS011;39156;51.176;6.738;2022-09-17T18:00:51;32.42;;;30.45;;
53267;SDS011;39156;51.176;6.738;2022-09-17T18:03:17;32.60;;;30.53;;
53267;SDS011;39156;51.176;6.738;2022-09-17T18:05:44;30.23;;;28.33;;
53267;SDS011;39156;51.176;6.738;2022-09-17T18:08:10;31.08;;;28.95;;
53267;SDS011;39156;51.176;6.738;2022-09-17T18:10:35;31.17;;;28.77;;
53267;SDS011;39156;51.176;6.738;2022-09-17T18:13:01;30.70;;;28.80;;
53267;SDS011;39156;51.176;6.738;2022-09-17T18:15:26;31.25;;;29.35;;
53267;SDS011;39156;51.176;6.738;2022-09-17T18:17:52;32.85;;;30.75;;
53267;SDS011;39156;51.176;6.738;2022-09-17T18:20:18;31.80;;;29.50;;
53267;SDS011;39156;51.176;6.738;2022-09-17T18:22:46;33.88;;;31.30;;
53267;SDS011;39156;51.176;6.738;2022-09-17T18:25:12;33.08;;;30.67;;
53267;SDS011;39156;51.176;6.738;2022-09-17T18:27:38;31.15;;;29.23;;
53267;SDS011;39156;51.176;6.738;2022-09-17T18:30:03;32.33;;;30.42;;
53267;SDS011;39156;51.176;6.738;2022-09-17T18:32:30;32.33;;;30.23;;
53267;SDS011;39156;51.176;6.738;2022-09-17T18:34:55;31.10;;;29.20;;
53267;SDS011;39156;51.176;6.738;2022-09-17T18:37:21;32.55;;;30.35;;
53267;SDS011;39156;51.176;6.738;2022-09-17T18:39:47;31.60;;;29.65;;
53267;SDS011;39156;51.176;6.738;2022-09-17T18:42:13;31.90;;;29.90;;
53267;SDS011;39156;51.176;6.738;2022-09-17T18:44:38;32.70;;;30.58;;
53267;SDS011;39156;51.176;6.738;2022-09-17T18:47:04;31.15;;;28.90;;
53267;SDS011;39156;51.176;6.738;2022-09-17T18:49:30;30.33;;;28.42;;
53267;SDS011;39156;51.176;6.738;2022-09-17T18:51:56;32.42;;;30.33;;
53267;SDS011;39156;51.176;6.738;2022-09-17T18:54:22;32.47;;;30.35;;
53267;SDS011;39156;51.176;6.738;2022-09-17T18:56:47;33.15;;;31.05;;
53267;SDS011;39156;51.176;6.738;2022-09-17T18:59:13;31.27;;;29.27;;